Time;durP1;ratioP1;P1;durP2;ratioP2;P2;SDS_P1;SDS_P2;PMS_P1;PMS_P2;Temp;Humidity;BMP_temperature;BMP_pressure;BME280_temperature;BME280_humidity;BME280_pressure;Samples;Min_cycle;Max_cycle;Signal;HPM_P1;HPM_P2
2021/01/27 00:01:33;;;;;;;7.53;3.95;;;;;;;4.05;47.30;101336.69;5062551;28;20056;-67
2021/01/27 00:04:03;;;;;;;6.25;3.72;;;;;;;4.05;47.08;101326.75;5054470;28;20076;-67
2021/01/27 00:06:30;;;;;;;7.15;3.95;;;;;;;4.04;47.24;101316.88;5061971;28;20389;-67
2021/01/27 00:08:57;;;;;;;7.63;3.80;;;;;;;4.03;47.15;101323.25;5053629;28;20126;-67
2021/01/27 00:11:24;;;;;;;6.60;3.97;;;;;;;4.03;47.24;101323.25;5061624;28;20119;-67
2021/01/27 00:13:52;;;;;;;6.95;4.13;;;;;;;4.01;46.89;101314.34;5052924;28;20037;-67
2021/01/27 00:16:19;;;;;;;6.82;4.00;;;;;;;4.00;47.00;101320.72;5060560;28;20048;-67
2021/01/27 00:18:46;;;;;;;6.78;4.25;;;;;;;4.00;47.22;101317.13;5051789;28;20044;-67
2021/01/27 00:21:15;;;;;;;7.40;4.18;;;;;;;3.99;47.05;101318.97;5057700;28;20040;-66
2021/01/27 00:23:42;;;;;;;6.53;4.50;;;;;;;3.98;47.05;101308.19;5053765;28;20095;-67
2021/01/27 00:26:09;;;;;;;7.03;4.45;;;;;;;3.98;47.12;101308.19;5056293;28;20049;-67
2021/01/27 00:28:37;;;;;;;6.35;3.95;;;;;;;3.97;47.38;101317.28;5052573;28;20048;-67
2021/01/27 00:31:04;;;;;;;7.38;4.47;;;;;;;3.95;46.98;101313.75;5056212;28;20052;-67
2021/01/27 00:33:31;;;;;;;7.93;4.35;;;;;;;3.95;47.12;101305.63;5054101;28;20067;-67
2021/01/27 00:35:58;;;;;;;8.25;4.43;;;;;;;3.94;47.22;101303.91;5050554;28;20044;-67
2021/01/27 00:38:28;;;;;;;8.25;4.30;;;;;;;3.95;47.37;101303.81;5052551;28;20049;-67
2021/01/27 00:40:56;;;;;;;10.02;4.50;;;;;;;3.93;47.14;101286.81;5054598;28;20063;-67
2021/01/27 00:43:23;;;;;;;6.95;4.65;;;;;;;3.92;47.13;101284.16;5052681;28;20121;-67
2021/01/27 00:45:51;;;;;;;6.45;4.22;;;;;;;3.91;47.05;101283.28;5052834;28;20102;-67
2021/01/27 00:48:19;;;;;;;7.60;4.43;;;;;;;3.90;47.17;101272.53;5053394;28;20498;-67
2021/01/27 00:50:47;;;;;;;7.68;4.38;;;;;;;3.90;47.13;101254.47;5052550;28;20047;-67
2021/01/27 00:53:14;;;;;;;6.90;4.30;;;;;;;3.88;47.19;101253.66;5051573;28;20047;-67
2021/01/27 00:55:47;;;;;;;7.50;4.60;;;;;;;3.89;47.13;101274.38;5052123;28;20049;-67
2021/01/27 00:58:15;;;;;;;6.13;3.83;;;;;;;3.87;47.13;101262.72;5052204;28;20056;-67
2021/01/27 01:00:46;;;;;;;5.43;4.00;;;;;;;3.86;47.45;101274.53;5051087;28;20080;-66
2021/01/27 01:03:32;;;;;;;7.20;4.20;;;;;;;3.85;47.20;101274.63;5052224;28;20128;-66
2021/01/27 01:05:58;;;;;;;6.60;3.53;;;;;;;3.85;46.84;101269.22;5056766;28;20044;-67
2021/01/27 01:08:26;;;;;;;5.63;3.47;;;;;;;3.84;47.25;101265.63;5054685;28;20052;-67
2021/01/27 01:11:43;;;;;;;6.72;3.60;;;;;;;3.83;46.56;101273.81;5053929;28;20499;-67
2021/01/27 01:14:11;;;;;;;6.28;3.88;;;;;;;3.80;46.85;101266.72;5047112;28;20090;-67
2021/01/27 01:16:38;;;;;;;6.32;3.72;;;;;;;3.78;47.01;101271.34;5059261;28;20046;-66
2021/01/27 01:19:07;;;;;;;5.25;3.53;;;;;;;3.80;46.50;101274.84;5051889;28;20056;-67
2021/01/27 01:21:39;;;;;;;6.10;3.50;;;;;;;3.76;46.78;101267.84;5051472;28;20064;-67
2021/01/27 01:24:07;;;;;;;6.03;3.30;;;;;;;3.78;46.72;101265.94;5053183;28;20136;-66
2021/01/27 01:26:34;;;;;;;5.85;3.42;;;;;;;3.78;46.77;101259.66;5058351;28;20047;-66
2021/01/27 01:29:01;;;;;;;6.30;3.45;;;;;;;3.77;46.83;101247.97;5051028;28;20060;-66
2021/01/27 01:31:30;;;;;;;5.68;3.50;;;;;;;3.77;46.51;101253.38;5056842;28;20127;-67
2021/01/27 01:33:58;;;;;;;6.18;3.30;;;;;;;3.76;46.65;101259.72;5053227;28;20563;-67
2021/01/27 01:36:25;;;;;;;4.50;3.13;;;;;;;3.76;47.05;101275.09;5055319;28;20071;-67
2021/01/27 01:38:52;;;;;;;4.93;3.00;;;;;;;3.76;46.65;101262.44;5053379;28;20518;-66
2021/01/27 01:41:19;;;;;;;5.57;3.35;;;;;;;3.76;46.59;101265.16;5053771;28;20116;-67
2021/01/27 01:43:46;;;;;;;4.63;3.22;;;;;;;3.76;46.26;101266.97;5055220;28;20052;-66
2021/01/27 01:46:15;;;;;;;5.38;3.13;;;;;;;3.75;46.58;101266.09;5052826;28;20041;-67
2021/01/27 01:48:48;;;;;;;4.93;3.30;;;;;;;3.76;46.48;101284.09;5047872;28;20033;-66
2021/01/27 01:51:20;;;;;;;5.45;2.90;;;;;;;3.74;46.18;101277.00;5034606;28;20037;-66
2021/01/27 01:53:50;;;;;;;5.32;3.00;;;;;;;3.73;46.26;101269.81;5048845;28;20111;-66
2021/01/27 01:56:20;;;;;;;4.95;3.17;;;;;;;3.75;46.22;101276.91;5050993;28;20071;-66
2021/01/27 01:58:52;;;;;;;4.90;3.13;;;;;;;3.76;46.36;101275.09;5054255;28;20403;-67
2021/01/27 02:01:20;;;;;;;4.65;2.95;;;;;;;3.76;46.62;101264.25;5052137;28;20116;-66
2021/01/27 02:03:51;;;;;;;5.10;3.38;;;;;;;3.76;46.28;101264.25;5054475;28;20490;-67
2021/01/27 02:06:19;;;;;;;5.40;3.38;;;;;;;3.74;46.54;101261.63;5051297;28;20056;-67
2021/01/27 02:08:49;;;;;;;5.93;3.50;;;;;;;3.75;46.13;101257.97;5053270;28;20043;-67
2021/01/27 02:11:18;;;;;;;5.45;3.20;;;;;;;3.76;46.00;101256.16;5044852;28;20494;-66
2021/01/27 02:14:18;;;;;;;5.45;3.17;;;;;;;3.74;44.66;101256.22;5052078;28;20094;-66
2021/01/27 02:16:54;;;;;;;5.28;2.75;;;;;;;3.73;45.07;101248.19;5052114;28;20048;-67
2021/01/27 02:20:04;;;;;;;4.63;2.20;;;;;;;3.68;44.05;101235.78;5049944;28;20052;-66
2021/01/27 02:23:11;;;;;;;3.50;1.80;;;;;;;3.61;44.00;101226.22;5050962;28;20045;-66
2021/01/27 02:26:00;;;;;;;4.00;1.80;;;;;;;3.59;43.82;101222.69;5034527;28;20668;-66
2021/01/27 02:28:42;;;;;;;3.05;1.58;;;;;;;3.59;44.19;101217.28;5052270;28;20043;-66
2021/01/27 02:31:15;;;;;;;3.35;1.48;;;;;;;3.57;44.35;101218.31;5051369;28;20041;-66
2021/01/27 02:34:00;;;;;;;3.35;1.80;;;;;;;3.52;43.27;101214.97;5059651;28;20065;-67
2021/01/27 02:36:33;;;;;;;2.50;1.48;;;;;;;3.50;44.46;101211.47;5051275;28;20552;-66
2021/01/27 02:39:07;;;;;;;2.60;1.40;;;;;;;3.50;44.90;101227.69;5058790;28;20052;-66
2021/01/27 02:41:38;;;;;;;;;;;;;;;3.27;44.88;101216.22;5052514;28;20041;-67
2021/01/27 02:44:10;;;;;;;3.10;1.40;;;;;;;3.44;44.94;101207.25;5058953;28;19921;-67
2021/01/27 02:46:42;;;;;;;2.42;1.40;;;;;;;3.49;44.88;101204.31;5051175;28;20040;-66
2021/01/27 02:49:16;;;;;;;3.00;1.50;;;;;;;3.48;45.07;101200.72;5056941;28;20048;-66
2021/01/27 02:51:50;;;;;;;2.88;1.50;;;;;;;3.49;44.97;101194.34;5051906;28;20419;-67
2021/01/27 02:54:21;;;;;;;4.03;1.60;;;;;;;3.49;44.99;101179.97;5057045;28;20055;-66
2021/01/27 02:56:53;;;;;;;2.90;1.40;;;;;;;3.50;45.00;101177.19;5051758;28;20037;-66
2021/01/27 02:59:26;;;;;;;3.90;1.80;;;;;;;3.49;44.79;101175.44;5056803;28;20049;-66
2021/01/27 03:02:00;;;;;;;3.55;1.70;;;;;;;3.50;44.44;101160.06;5051709;28;20038;-66
2021/01/27 03:04:32;;;;;;;2.95;1.45;;;;;;;3.51;44.89;101151.00;5056254;28;20045;-66
2021/01/27 03:07:02;;;;;;;2.50;1.42;;;;;;;3.52;45.09;101145.53;5055900;28;20535;-66
2021/01/27 03:09:38;;;;;;;3.05;1.38;;;;;;;3.53;44.53;101147.28;5050873;28;20036;-67
2021/01/27 03:12:08;;;;;;;3.28;1.40;;;;;;;3.52;45.35;101142.81;5050529;28;20041;-66
2021/01/27 03:14:35;;;;;;;2.95;1.55;;;;;;;3.53;45.16;101133.75;5048622;28;20037;-66
2021/01/27 03:17:07;;;;;;;3.38;1.50;;;;;;;3.55;44.83;101137.22;5054357;28;20045;-67
2021/01/27 03:19:39;;;;;;;2.88;1.38;;;;;;;3.57;44.87;101123.63;5052896;28;20108;-67
2021/01/27 03:22:12;;;;;;;2.80;1.42;;;;;;;3.59;44.74;101129.84;5054284;28;20212;-67
2021/01/27 03:24:47;;;;;;;3.15;1.42;;;;;;;3.58;44.65;101123.56;5057884;28;20063;-67
2021/01/27 03:27:19;;;;;;;3.38;1.30;;;;;;;3.59;45.24;101125.31;5054605;28;20492;-66
2021/01/27 03:29:49;;;;;;;1.50;0.98;;;;;;;3.54;45.61;101131.91;5049782;28;20076;-66
2021/01/27 03:32:22;;;;;;;1.90;1.25;;;;;;;3.60;45.14;101127.06;5054942;28;20499;-66
2021/01/27 03:34:56;;;;;;;2.95;1.20;;;;;;;3.62;45.17;101125.16;5052696;28;20480;-66
2021/01/27 03:37:31;;;;;;;3.40;1.40;;;;;;;3.61;44.76;101117.16;5054322;28;20041;-66
2021/01/27 03:40:02;;;;;;;2.63;1.27;;;;;;;3.62;45.14;101102.63;5055341;28;20103;-67
2021/01/27 03:42:40;;;;;;;2.22;1.10;;;;;;;3.64;45.18;101106.16;5052719;28;20049;-66
2021/01/27 03:45:10;;;;;;;2.15;1.20;;;;;;;3.63;45.45;101080.03;5037696;28;20057;-66
2021/01/27 03:47:44;;;;;;;3.33;1.33;;;;;;;3.63;45.43;101067.41;5054472;28;20037;-67
2021/01/27 03:50:16;;;;;;;3.28;1.35;;;;;;;3.65;45.55;101056.50;5054216;28;20072;-67
2021/01/27 03:52:50;;;;;;;2.20;1.17;;;;;;;3.64;45.41;101050.22;5054443;28;20064;-66
2021/01/27 03:55:24;;;;;;;2.67;1.30;;;;;;;3.65;45.09;101060.06;5053106;28;20444;-66
2021/01/27 03:58:01;;;;;;;2.88;1.20;;;;;;;3.66;45.41;101069.94;5054359;28;20041;-66
2021/01/27 04:00:30;;;;;;;2.53;1.17;;;;;;;3.65;45.61;101075.44;5061246;28;20045;-66
2021/01/27 04:03:18;;;;;;;4.15;1.40;;;;;;;3.65;45.38;101062.78;5054320;28;20389;-67
2021/01/27 04:05:47;;;;;;;3.78;1.55;;;;;;;3.64;45.62;101068.28;5061411;28;20052;-66
2021/01/27 04:08:16;;;;;;;3.97;1.70;;;;;;;3.64;45.40;101061.03;5052608;28;20120;-67
2021/01/27 04:10:43;;;;;;;3.45;1.52;;;;;;;3.65;45.70;101070.03;5059537;28;20045;-67
2021/01/27 04:13:12;;;;;;;3.75;1.63;;;;;;;3.66;45.37;101069.06;5054294;28;20039;-66
2021/01/27 04:15:39;;;;;;;3.00;1.70;;;;;;;3.64;45.82;101054.75;5059188;28;20041;-66
2021/01/27 04:18:07;;;;;;;4.47;1.70;;;;;;;3.65;45.63;101059.19;5053147;28;20067;-66
2021/01/27 04:20:34;;;;;;;3.38;1.70;;;;;;;3.65;45.77;101061.91;5053497;28;20073;-66
2021/01/27 04:23:02;;;;;;;3.78;1.90;;;;;;;3.63;45.69;101056.56;5054006;28;20124;-66
2021/01/27 04:25:30;;;;;;;3.55;1.80;;;;;;;3.65;45.63;101056.50;5059696;28;20124;-66
2021/01/27 04:27:57;;;;;;;3.75;1.83;;;;;;;3.64;45.72;101047.50;5053602;28;20056;-66
2021/01/27 04:30:29;;;;;;;4.55;2.20;;;;;;;3.65;45.69;101040.28;5058324;28;20045;-66
2021/01/27 04:32:56;;;;;;;4.60;2.10;;;;;;;3.64;45.53;101023.16;5052278;28;20048;-66
2021/01/27 04:35:24;;;;;;;4.22;2.28;;;;;;;3.65;45.69;101011.38;5058274;28;20196;-66
2021/01/27 04:37:51;;;;;;;4.95;2.38;;;;;;;3.64;45.71;101006.06;5053087;28;20115;-66
2021/01/27 04:40:24;;;;;;;5.25;2.30;;;;;;;3.65;45.82;101016.78;5057246;28;20040;-66
2021/01/27 04:42:53;;;;;;;4.43;2.13;;;;;;;3.65;45.78;101010.50;5053740;28;20044;-67
2021/01/27 04:45:22;;;;;;;5.07;2.35;;;;;;;3.65;45.86;100999.69;5057248;28;20063;-66
2021/01/27 04:47:56;;;;;;;3.78;2.50;;;;;;;3.67;45.99;100995.06;5051741;28;20049;-66
2021/01/27 04:50:29;;;;;;;4.53;2.80;;;;;;;3.67;46.05;100982.44;5038158;28;20606;-66
2021/01/27 04:53:12;;;;;;;5.30;2.55;;;;;;;3.69;46.05;100966.13;5053158;28;20048;-66
2021/01/27 04:56:11;;;;;;;5.05;3.00;;;;;;;3.65;45.91;100964.53;5052561;28;20041;-67
2021/01/27 04:58:51;;;;;;;6.63;3.10;;;;;;;3.67;45.84;100957.19;5051534;28;20458;-66
2021/01/27 05:01:47;;;;;;;4.68;2.53;;;;;;;3.67;45.62;100940.97;5035544;28;20086;-67
2021/01/27 05:04:32;;;;;;;5.93;3.00;;;;;;;3.67;45.88;100941.84;5043579;28;20512;-66
2021/01/27 05:07:11;;;;;;;5.35;2.90;;;;;;;3.66;45.88;100944.63;5051176;28;20141;-67
2021/01/27 05:09:45;;;;;;;4.32;2.60;;;;;;;3.65;46.04;100938.34;5051573;28;20180;-66
2021/01/27 05:12:16;;;;;;;3.90;2.10;;;;;;;3.66;46.01;100933.81;5052095;28;20048;-65
2021/01/27 05:14:46;;;;;;;4.35;2.40;;;;;;;3.66;46.23;100933.81;5052853;28;20037;-66
2021/01/27 05:17:17;;;;;;;4.00;1.90;;;;;;;3.65;46.15;100921.25;5050732;28;20045;-66
2021/01/27 05:19:45;;;;;;;4.22;2.10;;;;;;;3.65;46.03;100923.94;5047586;28;20048;-66
2021/01/27 05:22:14;;;;;;;3.47;1.95;;;;;;;3.65;46.27;100922.13;5051691;28;20055;-67
2021/01/27 05:24:42;;;;;;;4.50;1.92;;;;;;;3.65;46.07;100923.94;5052375;28;20045;-66
2021/01/27 05:27:16;;;;;;;3.25;1.88;;;;;;;3.66;45.90;100921.16;5052818;28;20045;-67
2021/01/27 05:29:53;;;;;;;3.60;1.75;;;;;;;3.67;45.76;100913.91;5051968;28;20044;-66
2021/01/27 05:32:21;;;;;;;3.50;1.90;;;;;;;3.63;46.19;100902.38;5052631;28;20037;-66
2021/01/27 05:34:50;;;;;;;2.95;1.88;;;;;;;3.65;45.88;100899.59;5052587;28;20037;-66
2021/01/27 05:37:20;;;;;;;3.90;1.80;;;;;;;3.64;45.74;100900.56;5059056;28;20060;-66
2021/01/27 05:39:50;;;;;;;2.85;1.63;;;;;;;3.64;45.80;100911.38;5050048;28;20041;-66
2021/01/27 05:42:28;;;;;;;2.55;1.50;;;;;;;3.65;45.99;100895.06;5056521;28;20040;-66
2021/01/27 05:45:18;;;;;;;2.75;1.77;;;;;;;3.62;46.10;100900.63;5051565;28;20053;-66
2021/01/27 05:47:45;;;;;;;3.17;1.90;;;;;;;3.60;46.04;100889.03;5047977;28;20029;-66
2021/01/27 05:50:21;;;;;;;3.25;1.73;;;;;;;3.63;46.23;100882.56;5047291;28;20041;-66
2021/01/27 05:52:49;;;;;;;3.30;1.40;;;;;;;3.60;46.28;100877.31;5044676;28;20048;-67
2021/01/27 05:55:17;;;;;;;3.30;1.90;;;;;;;3.60;46.14;100880.91;5056022;28;20056;-66
2021/01/27 05:57:57;;;;;;;2.58;1.65;;;;;;;3.62;45.94;100886.25;5046280;28;20424;-67
2021/01/27 06:00:28;;;;;;;2.90;1.75;;;;;;;3.60;46.12;100882.75;5048287;28;20037;-66
2021/01/27 06:02:59;;;;;;;3.45;1.80;;;;;;;3.58;46.05;100884.66;5044912;28;20465;-66
2021/01/27 06:05:37;;;;;;;2.53;1.60;;;;;;;3.59;46.62;100887.28;5055900;28;20060;-66
2021/01/27 06:08:11;;;;;;;4.05;2.00;;;;;;;3.56;46.57;100871.22;5061869;28;20051;-66
2021/01/27 06:10:40;;;;;;;2.88;1.80;;;;;;;3.56;46.14;100875.75;5046278;28;20032;-66
2021/01/27 06:13:24;;;;;;;2.40;1.67;;;;;;;3.56;46.24;100873.91;5060522;28;20425;-66
2021/01/27 06:15:53;;;;;;;3.13;1.75;;;;;;;3.53;46.17;100855.19;5052673;28;20029;-66
2021/01/27 06:18:24;;;;;;;4.53;1.80;;;;;;;3.53;46.56;100838.94;5057597;28;20686;-67
2021/01/27 06:21:10;;;;;;;3.70;1.80;;;;;;;3.53;46.56;100838.94;5048279;28;20408;-67
2021/01/27 06:24:21;;;;;;;3.20;1.77;;;;;;;3.48;46.72;100846.44;5047378;28;20114;-67
2021/01/27 06:27:19;;;;;;;3.00;1.60;;;;;;;3.50;46.72;100843.66;5051999;28;20435;-66
2021/01/27 06:30:21;;;;;;;3.88;1.70;;;;;;;3.45;46.80;100851.16;5045409;28;20045;-66
2021/01/27 06:33:13;;;;;;;3.30;2.03;;;;;;;3.47;46.72;100857.34;5046690;28;20040;-66
2021/01/27 06:35:54;;;;;;;3.83;1.73;;;;;;;3.45;47.15;100843.06;5047411;28;20049;-66
2021/01/27 06:38:34;;;;;;;3.03;1.98;;;;;;;3.47;46.82;100854.63;5051374;28;20106;-67
2021/01/27 06:41:30;;;;;;;3.15;2.10;;;;;;;3.45;47.32;100841.22;5050218;28;20129;-66
2021/01/27 06:44:31;;;;;;;3.97;2.00;;;;;;;3.41;47.08;100842.34;5049660;28;20556;-67
2021/01/27 06:47:23;;;;;;;3.33;1.90;;;;;;;3.43;47.00;100821.50;5046981;28;20099;-67
2021/01/27 06:50:27;;;;;;;2.78;1.70;;;;;;;3.41;47.16;100809.00;5047608;28;20149;-67
2021/01/27 06:53:28;;;;;;;4.20;2.00;;;;;;;3.39;47.09;100813.63;5054025;28;20063;-67
2021/01/27 06:56:04;;;;;;;4.78;2.00;;;;;;;3.37;47.38;100811.00;5051436;28;20032;-68
2021/01/27 06:58:54;;;;;;;3.47;1.88;;;;;;;3.38;47.64;100818.16;5057091;28;20039;-68
2021/01/27 07:01:44;;;;;;;4.40;1.90;;;;;;;3.37;47.61;100808.31;5047107;28;20095;-68
2021/01/27 07:05:01;;;;;;;3.55;2.10;;;;;;;3.33;47.41;100801.34;5052377;28;20041;-67
2021/01/27 07:07:57;;;;;;;3.20;1.80;;;;;;;3.32;47.77;100799.59;5021909;28;20545;-68
2021/01/27 07:10:47;;;;;;;3.88;1.85;;;;;;;3.31;47.55;100812.25;5053838;28;20091;-68
2021/01/27 07:13:32;;;;;;;3.65;2.10;;;;;;;3.30;47.68;100815.91;5047637;28;20488;-69
2021/01/27 07:16:05;;;;;;;4.68;2.22;;;;;;;3.29;47.94;100811.44;5050417;28;20049;-69
2021/01/27 07:19:02;;;;;;;5.07;2.30;;;;;;;3.29;47.74;100815.97;5053237;28;20112;-70
2021/01/27 07:21:35;;;;;;;3.50;1.95;;;;;;;3.29;47.57;100815.97;5056522;28;20025;-69
2021/01/27 07:24:08;;;;;;;3.60;1.95;;;;;;;3.27;47.93;100797.16;5050692;28;20051;-69
2021/01/27 07:26:46;;;;;;;5.55;2.53;;;;;;;3.29;47.62;100794.34;5047470;28;20440;-69
2021/01/27 07:29:19;;;;;;;4.80;2.55;;;;;;;3.28;47.49;100800.75;5048181;28;20056;-69
2021/01/27 07:31:52;;;;;;;;;;;;;;;3.06;47.93;100808.31;5054413;28;20048;-70
2021/01/27 07:34:29;;;;;;;4.32;2.33;;;;;;;3.24;47.75;100804.56;5054017;28;19925;-69
2021/01/27 07:37:06;;;;;;;3.92;2.17;;;;;;;3.28;47.90;100814.25;5066124;28;20044;-69
2021/01/27 07:39:43;;;;;;;4.43;2.42;;;;;;;3.27;47.99;100807.97;5052311;28;20040;-69
2021/01/27 07:42:17;;;;;;;5.22;2.40;;;;;;;3.26;47.54;100803.53;5051044;28;20059;-69
2021/01/27 07:44:50;;;;;;;4.82;2.28;;;;;;;3.27;47.72;100807.09;5053429;28;20037;-69
2021/01/27 07:47:31;;;;;;;5.18;2.50;;;;;;;3.27;47.74;100807.09;5049669;28;20055;-68
2021/01/27 07:49:59;;;;;;;3.80;2.40;;;;;;;3.24;47.66;100813.56;5053019;28;20488;-68
2021/01/27 07:52:29;;;;;;;5.13;2.50;;;;;;;3.25;47.97;100809.91;5064845;28;20033;-68
2021/01/27 07:55:06;;;;;;;5.43;2.85;;;;;;;3.26;47.95;100806.22;5057725;28;20124;-68
2021/01/27 07:57:42;;;;;;;5.13;2.95;;;;;;;3.26;48.38;100808.94;5058225;28;20044;-69
2021/01/27 08:00:15;;;;;;;4.35;2.75;;;;;;;3.25;48.15;100814.44;5053263;28;20045;-69
2021/01/27 08:03:07;;;;;;;4.97;3.22;;;;;;;3.25;48.31;100815.31;5050285;28;20132;-69
2021/01/27 08:05:40;;;;;;;4.50;2.90;;;;;;;3.24;48.00;100807.28;5053422;28;20094;-69
2021/01/27 08:08:12;;;;;;;5.10;3.08;;;;;;;3.23;47.94;100806.41;5049486;28;20052;-70
2021/01/27 08:10:41;;;;;;;6.13;3.00;;;;;;;3.23;47.97;100825.31;5053772;28;20064;-70
2021/01/27 08:13:17;;;;;;;4.90;3.00;;;;;;;3.25;47.96;100830.66;5060402;28;20426;-70
2021/01/27 08:16:01;;;;;;;5.63;3.08;;;;;;;3.24;48.32;100808.16;5058721;28;20400;-70
2021/01/27 08:18:30;;;;;;;6.10;2.95;;;;;;;3.21;48.08;100824.53;5052098;28;20057;-69
2021/01/27 08:21:24;;;;;;;5.97;3.00;;;;;;;3.23;48.28;100824.44;5049337;28;20041;-69
2021/01/27 08:27:35;;;;;;;5.50;3.25;;;;;;;3.18;48.38;100800.41;5047025;28;20050;-69
2021/01/27 08:30:29;;;;;;;4.60;2.80;;;;;;;3.15;48.61;100791.56;5056368;28;20045;-69
2021/01/27 08:33:35;;;;;;;5.60;3.20;;;;;;;3.16;48.60;100794.19;5050015;28;20449;-68
2021/01/27 08:36:06;;;;;;;5.88;3.30;;;;;;;3.17;48.03;100800.47;5041311;28;20061;-68
2021/01/27 08:38:37;;;;;;;4.80;2.90;;;;;;;3.18;48.32;100813.91;5053752;28;20120;-68
2021/01/27 08:41:09;;;;;;;4.85;3.00;;;;;;;3.19;48.24;100814.78;5051025;28;20048;-69
2021/01/27 08:43:42;;;;;;;7.60;3.72;;;;;;;3.17;48.24;100809.47;5053946;28;20033;-69
2021/01/27 08:46:40;;;;;;;6.70;3.35;;;;;;;3.19;48.88;100814.78;5052742;28;20044;-68
2021/01/27 08:49:09;;;;;;;4.97;2.88;;;;;;;3.16;48.34;100810.41;5051472;28;20068;-67
2021/01/27 08:51:45;;;;;;;5.47;2.85;;;;;;;3.20;48.74;100808.41;5052216;28;20029;-67
2021/01/27 08:54:29;;;;;;;4.85;3.20;;;;;;;3.20;48.66;100822.81;5056785;28;20127;-68
2021/01/27 08:57:14;;;;;;;;;;;;;;;2.96;48.95;100823.31;5044710;28;20052;-68
2021/01/27 08:59:55;;;;;;;5.80;2.92;;;;;;;3.17;48.64;100804.06;5048493;28;19921;-67
2021/01/27 09:02:42;;;;;;;5.13;3.00;;;;;;;3.19;49.15;100775.13;5047528;28;20037;-67
2021/01/27 09:05:14;;;;;;;6.22;2.95;;;;;;;3.19;48.67;100774.25;5039214;28;20029;-67
2021/01/27 09:07:50;;;;;;;5.85;3.05;;;;;;;3.21;49.02;100772.28;5054386;28;20417;-67
2021/01/27 09:10:50;;;;;;;5.18;3.53;;;;;;;3.22;48.93;100758.69;5052423;28;20136;-67
2021/01/27 09:13:41;;;;;;;5.50;3.03;;;;;;;3.19;49.23;100758.03;5029978;28;20042;-67
2021/01/27 09:16:12;;;;;;;5.57;3.53;;;;;;;3.20;48.88;100763.34;5046438;28;20048;-67
2021/01/27 09:18:43;;;;;;;6.18;3.70;;;;;;;3.22;48.62;100764.09;5051387;28;20040;-67
2021/01/27 09:21:18;;;;;;;6.32;4.10;;;;;;;3.24;49.07;100754.09;5049930;28;20565;-67
2021/01/27 09:23:48;;;;;;;4.97;2.88;;;;;;;3.22;48.86;100747.88;5051672;28;20049;-67
2021/01/27 09:26:19;;;;;;;5.88;3.85;;;;;;;3.24;48.69;100754.09;5049203;28;20419;-67
2021/01/27 09:28:48;;;;;;;5.38;3.35;;;;;;;3.24;48.77;100756.78;5049387;28;20053;-67
2021/01/27 09:31:18;;;;;;;5.53;3.30;;;;;;;3.25;48.87;100763.94;5051771;28;20048;-67
2021/01/27 09:33:47;;;;;;;5.45;3.63;;;;;;;3.26;48.93;100762.09;5051371;28;20041;-68
2021/01/27 09:36:21;;;;;;;6.32;3.70;;;;;;;3.27;49.09;100767.44;5051574;28;20124;-68
2021/01/27 09:38:50;;;;;;;5.57;3.40;;;;;;;3.29;48.95;100770.03;5051030;28;20111;-66
2021/01/27 09:41:23;;;;;;;5.40;3.05;;;;;;;3.32;49.06;100768.03;5050754;28;20087;-67
2021/01/27 09:43:52;;;;;;;5.38;3.10;;;;;;;3.31;48.89;100768.09;5049585;28;20072;-67
2021/01/27 09:46:26;;;;;;;4.93;3.30;;;;;;;3.35;49.21;100769.69;5050100;28;20052;-67
2021/01/27 09:48:58;;;;;;;5.93;3.60;;;;;;;3.37;49.24;100766.91;5031152;28;20060;-67
2021/01/27 09:51:26;;;;;;;4.78;3.28;;;;;;;3.37;49.26;100772.31;5052217;28;20045;-67
2021/01/27 09:53:59;;;;;;;4.82;3.17;;;;;;;3.39;49.39;100768.53;5050468;28;20392;-66
2021/01/27 09:56:29;;;;;;;6.43;3.30;;;;;;;3.38;48.98;100769.50;5051916;28;20049;-66
2021/01/27 09:58:58;;;;;;;4.43;3.10;;;;;;;3.41;48.85;100768.47;5050521;28;20552;-66
2021/01/27 10:01:28;;;;;;;4.97;3.25;;;;;;;3.44;49.25;100779.09;5057219;28;20045;-67
2021/01/27 10:04:08;;;;;;;5.55;3.60;;;;;;;3.47;49.62;100787.03;5049530;28;20515;-67
2021/01/27 10:06:40;;;;;;;8.45;4.60;;;;;;;3.45;49.09;100787.13;5055759;28;20056;-67
2021/01/27 10:09:18;;;;;;;7.30;3.85;;;;;;;3.48;49.36;100789.63;5051192;28;20124;-67
2021/01/27 10:11:46;;;;;;;6.68;3.92;;;;;;;3.47;49.10;100785.19;5053804;28;20041;-67
2021/01/27 10:14:22;;;;;;;5.60;3.55;;;;;;;3.50;49.12;100792.25;5054775;28;20444;-67
2021/01/27 10:16:53;;;;;;;5.57;3.30;;;;;;;3.50;49.44;100786.84;5061663;28;20040;-67
2021/01/27 10:19:25;;;;;;;4.88;3.33;;;;;;;3.51;49.55;100789.47;5047422;28;20061;-67
2021/01/27 10:22:09;;;;;;;5.55;3.40;;;;;;;3.53;49.88;100787.56;5056929;28;20461;-67
2021/01/27 10:24:55;;;;;;;4.60;3.33;;;;;;;3.54;49.61;100788.41;5053405;28;20589;-67
2021/01/27 10:30:56;;;;;;;4.07;3.20;;;;;;;3.51;49.66;100796.72;4999812;28;20420;-68
2021/01/27 10:33:48;;;;;;;4.43;2.75;;;;;;;3.53;50.05;100795.69;5057984;28;20037;-68
2021/01/27 10:36:32;;;;;;;4.07;3.13;;;;;;;3.57;50.01;100801.75;5055769;28;20041;-69
2021/01/27 10:39:14;;;;;;;4.57;3.33;;;;;;;3.59;50.27;100802.56;5059547;28;20416;-68
2021/01/27 10:41:42;;;;;;;5.07;2.90;;;;;;;3.59;49.59;100803.44;5058590;28;20576;-69
2021/01/27 10:44:27;;;;;;;3.97;2.63;;;;;;;3.63;50.19;100793.31;5062785;28;20354;-68
2021/01/27 10:47:00;;;;;;;5.13;2.70;;;;;;;3.64;49.63;100795.06;5054021;28;20033;-69
2021/01/27 10:49:29;;;;;;;4.47;2.92;;;;;;;3.63;49.62;100788.78;5054582;28;20583;-69
2021/01/27 10:52:05;;;;;;;4.90;3.15;;;;;;;3.68;50.05;100788.53;5053878;28;20061;-70
2021/01/27 10:54:33;;;;;;;5.03;2.80;;;;;;;3.67;49.55;100792.19;5045422;28;20431;-70
2021/01/27 10:57:00;;;;;;;4.70;3.10;;;;;;;3.69;49.57;100779.44;5061607;28;20043;-70
2021/01/27 10:59:29;;;;;;;4.25;2.85;;;;;;;3.70;49.74;100781.16;5057255;28;20036;-70
2021/01/27 11:01:56;;;;;;;4.43;2.83;;;;;;;3.72;49.66;100779.25;5062301;28;20440;-70
2021/01/27 11:04:23;;;;;;;4.32;2.85;;;;;;;3.74;49.56;100785.44;5051991;28;20584;-69
2021/01/27 11:06:50;;;;;;;4.28;2.25;;;;;;;3.75;49.61;100784.50;5055951;28;20161;-69
2021/01/27 11:09:18;;;;;;;3.85;2.40;;;;;;;3.78;49.78;100778.91;5053341;28;20041;-69
2021/01/27 11:11:46;;;;;;;3.47;2.50;;;;;;;3.79;49.68;100774.34;5064060;28;20400;-69
2021/01/27 11:14:13;;;;;;;3.90;2.50;;;;;;;3.81;49.68;100775.13;5060028;28;20492;-69
2021/01/27 11:16:41;;;;;;;4.47;2.60;;;;;;;3.85;49.92;100774.88;5067763;28;20040;-69
2021/01/27 11:19:09;;;;;;;4.53;2.35;;;;;;;3.84;50.00;100774.94;5056609;28;20593;-69
2021/01/27 11:21:36;;;;;;;3.72;2.28;;;;;;;3.85;49.75;100772.16;5060859;28;20464;-69
2021/01/27 11:24:04;;;;;;;4.38;2.40;;;;;;;3.88;49.80;100773.78;5065634;28;20072;-69
2021/01/27 11:26:33;;;;;;;3.70;2.20;;;;;;;3.90;50.09;100769.16;5067370;28;20043;-69
2021/01/27 11:29:00;;;;;;;4.28;2.40;;;;;;;3.90;50.10;100767.34;5067073;28;20386;-67
2021/01/27 11:31:29;;;;;;;4.00;2.70;;;;;;;3.91;49.89;100769.09;5056483;28;20053;-68
2021/01/27 11:33:57;;;;;;;3.75;2.75;;;;;;;3.92;49.96;100759.13;5060069;28;20079;-68
2021/01/27 11:36:25;;;;;;;3.60;2.55;;;;;;;3.94;49.96;100765.34;5057378;28;20048;-68
2021/01/27 11:38:53;;;;;;;3.85;2.42;;;;;;;3.96;50.09;100757.97;5027538;28;20049;-69
2021/01/27 11:41:21;;;;;;;3.88;2.17;;;;;;;3.96;50.02;100756.13;5049605;28;20040;-69
2021/01/27 11:43:50;;;;;;;3.75;2.20;;;;;;;3.97;50.07;100763.28;5063234;28;20476;-68
2021/01/27 11:46:19;;;;;;;3.90;1.95;;;;;;;3.99;50.15;100747.84;5056917;28;20041;-69
2021/01/27 11:48:48;;;;;;;3.97;2.00;;;;;;;4.00;50.47;100737.88;5051556;28;20065;-68
2021/01/27 11:51:15;;;;;;;3.40;1.90;;;;;;;4.01;50.18;100735.09;5051197;28;20044;-68
2021/01/27 11:53:43;;;;;;;3.72;2.10;;;;;;;4.02;49.98;100739.53;5051808;28;20041;-69
2021/01/27 11:56:11;;;;;;;3.42;2.00;;;;;;;4.04;50.15;100732.19;5048380;28;20041;-67
2021/01/27 11:58:39;;;;;;;2.60;1.70;;;;;;;4.05;50.17;100733.91;5058245;28;20052;-68
2021/01/27 12:01:08;;;;;;;3.25;2.08;;;;;;;4.08;50.08;100735.59;5053567;28;20125;-68
2021/01/27 12:03:35;;;;;;;3.97;1.92;;;;;;;4.07;50.16;100732.00;5056590;28;20039;-68
2021/01/27 12:06:02;;;;;;;2.97;1.85;;;;;;;4.08;50.25;100736.44;5050080;28;20127;-68
2021/01/27 12:08:30;;;;;;;2.25;1.60;;;;;;;4.11;50.28;100731.81;5057689;28;20055;-68
2021/01/27 12:10:57;;;;;;;3.10;2.03;;;;;;;4.13;50.18;100738.00;5052321;28;20037;-67
2021/01/27 12:13:25;;;;;;;3.55;1.90;;;;;;;4.13;50.03;100736.16;5055407;28;20480;-68
2021/01/27 12:15:52;;;;;;;4.22;2.05;;;;;;;4.15;50.44;100734.22;5051336;28;20048;-69